Time;durP1;ratioP1;P1;durP2;ratioP2;P2;SDS_P1;SDS_P2;PMS_P1;PMS_P2;Temp;Humidity;BMP_temperature;BMP_pressure;BME280_temperature;BME280_humidity;BME280_pressure;Samples;Min_cycle;Max_cycle;Signal;HPM_P1;HPM_P2
2023/12/09 00:01:24;;;;;;;37.60;13.00;;;8.40;99.90;;;;;;5054208;28;20043;-90
2023/12/09 00:03:50;;;;;;;27.55;12.80;;;8.40;99.90;;;;;;5071299;28;20090;-90
2023/12/09 00:06:17;;;;;;;39.58;12.88;;;8.40;99.90;;;;;;5054624;28;20055;-91
2023/12/09 00:08:43;;;;;;;32.00;12.13;;;8.40;99.90;;;;;;5071040;28;20476;-90
2023/12/09 00:11:09;;;;;;;31.17;11.88;;;8.30;99.90;;;;;;5071267;28;20523;-91
2023/12/09 00:13:35;;;;;;;28.98;12.18;;;8.30;99.90;;;;;;5054034;28;20039;-91
2023/12/09 00:16:00;;;;;;;30.60;12.18;;;8.30;99.90;;;;;;5054152;28;20036;-91
2023/12/09 00:18:26;;;;;;;26.50;12.40;;;8.40;99.90;;;;;;5054573;28;20087;-90
2023/12/09 00:20:52;;;;;;;31.15;11.38;;;8.40;99.90;;;;;;5054320;28;20434;-91
2023/12/09 00:23:17;;;;;;;39.85;11.75;;;8.40;99.90;;;;;;5054381;28;20044;-91
2023/12/09 00:25:44;;;;;;;20.73;8.10;;;8.40;99.90;;;;;;5071059;28;20083;-91
2023/12/09 00:28:09;;;;;;;32.70;9.90;;;8.40;99.90;;;;;;5053960;28;20032;-91
2023/12/09 00:30:35;;;;;;;19.67;8.90;;;8.40;99.90;;;;;;5070227;28;20033;-90
2023/12/09 00:33:00;;;;;;;30.60;10.82;;;8.40;99.90;;;;;;5053785;28;20102;-90
2023/12/09 00:35:26;;;;;;;40.60;11.95;;;8.40;99.90;;;;;;5070927;28;20040;-91
2023/12/09 00:37:52;;;;;;;30.05;11.35;;;8.40;99.90;;;;;;5070471;28;20450;-91
2023/12/09 00:40:18;;;;;;;21.20;9.77;;;8.40;99.90;;;;;;5054106;28;20037;-92
2023/12/09 00:42:46;;;;;;;30.52;11.10;;;8.40;99.90;;;;;;5070634;28;20036;-91
2023/12/09 00:45:13;;;;;;;27.40;10.98;;;8.40;99.90;;;;;;5053543;28;20041;-91
2023/12/09 00:47:38;;;;;;;23.23;10.02;;;8.40;99.90;;;;;;5053626;28;20036;-91
2023/12/09 00:50:05;;;;;;;20.48;9.02;;;8.40;99.90;;;;;;5052872;28;20415;-91
2023/12/09 00:52:31;;;;;;;22.73;9.75;;;8.40;99.90;;;;;;5053971;28;20039;-91
2023/12/09 00:54:56;;;;;;;26.05;10.05;;;8.40;99.90;;;;;;5054885;28;20450;-90
2023/12/09 00:57:24;;;;;;;31.08;9.70;;;8.50;99.90;;;;;;5054045;28;20044;-91
2023/12/09 00:59:50;;;;;;;23.73;9.25;;;8.40;99.90;;;;;;5053162;28;20499;-91
2023/12/09 01:02:15;;;;;;;28.80;11.70;;;8.40;99.90;;;;;;5053568;28;20075;-91
2023/12/09 01:04:41;;;;;;;27.83;10.40;;;8.40;99.90;;;;;;5070129;28;20045;-91
2023/12/09 01:07:06;;;;;;;24.00;8.32;;;8.50;99.90;;;;;;5053200;28;20119;-91
2023/12/09 01:09:32;;;;;;;17.50;6.47;;;8.40;99.90;;;;;;5053233;28;20063;-90
2023/12/09 01:11:58;;;;;;;31.58;9.68;;;8.50;99.90;;;;;;5053287;28;20522;-90
2023/12/09 01:14:23;;;;;;;16.92;6.85;;;8.50;99.90;;;;;;5069589;28;20033;-90
2023/12/09 01:16:49;;;;;;;33.10;9.13;;;8.50;99.90;;;;;;5071179;28;20041;-91
2023/12/09 01:19:14;;;;;;;26.42;8.57;;;8.50;99.90;;;;;;5053178;28;20079;-90
2023/12/09 01:21:40;;;;;;;26.35;8.57;;;8.50;99.90;;;;;;5053183;28;20059;-91
2023/12/09 01:24:05;;;;;;;23.42;8.65;;;8.50;99.90;;;;;;5069768;28;20033;-90
2023/12/09 01:26:31;;;;;;;25.30;9.93;;;8.50;99.90;;;;;;5053129;28;20052;-90
2023/12/09 01:28:59;;;;;;;23.30;8.98;;;8.50;99.90;;;;;;5052381;28;20044;-89
2023/12/09 01:31:25;;;;;;;20.48;7.95;;;8.50;99.90;;;;;;5053487;28;20032;-91
2023/12/09 01:33:51;;;;;;;21.70;8.15;;;8.50;99.90;;;;;;5052898;28;20400;-90
2023/12/09 01:36:16;;;;;;;30.55;9.77;;;8.40;99.90;;;;;;5069685;28;20040;-91
2023/12/09 01:38:42;;;;;;;28.40;9.40;;;8.50;99.90;;;;;;5052651;28;20032;-91
2023/12/09 01:41:08;;;;;;;30.83;10.30;;;8.50;99.90;;;;;;5052793;28;20090;-91
2023/12/09 01:43:34;;;;;;;24.85;8.90;;;8.50;99.90;;;;;;5052756;28;20044;-91
2023/12/09 01:46:05;;;;;;;22.73;8.20;;;8.50;99.90;;;;;;5069829;28;20082;-91
2023/12/09 01:48:32;;;;;;;23.75;8.90;;;8.50;99.90;;;;;;5069130;28;20103;-91
2023/12/09 01:50:59;;;;;;;30.80;9.65;;;8.50;99.90;;;;;;5052539;28;20042;-91
2023/12/09 01:53:24;;;;;;;21.30;7.75;;;8.50;99.90;;;;;;5069711;28;20032;-91
2023/12/09 01:55:50;;;;;;;27.73;8.63;;;8.50;99.90;;;;;;5052974;28;20514;-92
2023/12/09 01:58:17;;;;;;;22.38;8.68;;;8.50;99.90;;;;;;5052896;28;20496;-91
2023/12/09 02:00:43;;;;;;;22.88;8.35;;;8.50;99.90;;;;;;5070238;28;20052;-91
2023/12/09 02:03:09;;;;;;;19.23;5.80;;;8.50;99.90;;;;;;5056724;28;20048;-91
2023/12/09 02:05:34;;;;;;;17.77;6.90;;;8.50;99.90;;;;;;5056945;28;20076;-91
2023/12/09 02:08:00;;;;;;;25.83;7.47;;;8.50;99.90;;;;;;5056417;28;20046;-91
2023/12/09 02:10:27;;;;;;;26.08;7.22;;;8.50;99.90;;;;;;5056382;28;20032;-91
2023/12/09 02:13:09;;;;;;;19.83;7.93;;;8.50;99.90;;;;;;5056718;28;20041;-91
2023/12/09 02:16:04;;;;;;;21.60;8.40;;;8.50;99.90;;;;;;5048759;28;20040;-91
2023/12/09 02:18:30;;;;;;;27.20;9.10;;;8.40;99.90;;;;;;5056639;28;20070;-91
2023/12/09 02:20:56;;;;;;;25.30;9.48;;;8.40;99.90;;;;;;5056329;28;20492;-91
2023/12/09 02:23:21;;;;;;;15.77;7.85;;;8.40;99.90;;;;;;5073079;28;20411;-92
2023/12/09 02:25:51;;;;;;;28.92;9.20;;;8.40;99.90;;;;;;5056383;28;20192;-91
2023/12/09 02:28:32;;;;;;;17.38;6.15;;;8.40;99.90;;;;;;5070623;28;20043;-91
2023/12/09 02:31:03;;;;;;;23.88;8.43;;;8.40;99.90;;;;;;5050381;28;20608;-92
2023/12/09 02:33:30;;;;;;;23.52;9.40;;;8.40;99.90;;;;;;5049298;28;20415;-92
2023/12/09 02:35:58;;;;;;;22.40;7.28;;;8.40;99.90;;;;;;5054624;28;20411;-92
2023/12/09 02:38:26;;;;;;;21.52;7.47;;;8.40;99.90;;;;;;5069288;28;20071;-92
2023/12/09 02:40:52;;;;;;;17.83;6.55;;;8.40;99.90;;;;;;5055667;28;20044;-92
2023/12/09 02:43:18;;;;;;;24.67;8.63;;;8.40;99.90;;;;;;5054551;28;20032;-92
2023/12/09 02:45:45;;;;;;;18.23;6.43;;;8.40;99.90;;;;;;5070791;28;20036;-92
2023/12/09 02:48:11;;;;;;;22.60;8.65;;;8.50;99.90;;;;;;5070439;28;20048;-91
2023/12/09 02:50:37;;;;;;;18.80;8.10;;;8.40;99.90;;;;;;5053930;28;20110;-92
2023/12/09 02:53:03;;;;;;;26.25;8.32;;;8.50;99.90;;;;;;5054282;28;20097;-92
2023/12/09 02:55:28;;;;;;;21.85;9.85;;;8.40;99.90;;;;;;5070748;28;20112;-91
2023/12/09 02:57:54;;;;;;;23.20;7.50;;;8.50;99.90;;;;;;5056089;28;20535;-92
2023/12/09 03:00:20;;;;;;;24.25;6.40;;;8.50;99.90;;;;;;5072297;28;20170;-92
2023/12/09 03:02:45;;;;;;;24.08;7.43;;;8.40;99.90;;;;;;5072081;28;20041;-92
2023/12/09 03:05:11;;;;;;;23.40;7.38;;;8.40;99.90;;;;;;5072415;28;20032;-92
2023/12/09 03:07:36;;;;;;;25.35;7.88;;;8.40;99.90;;;;;;5055494;28;20032;-92
2023/12/09 03:10:02;;;;;;;21.67;7.18;;;8.40;99.90;;;;;;5055695;28;20043;-92
2023/12/09 03:12:28;;;;;;;28.25;8.55;;;8.40;99.90;;;;;;5055165;28;20086;-92
2023/12/09 03:14:54;;;;;;;22.25;8.00;;;8.40;99.90;;;;;;5056158;28;20079;-92
2023/12/09 03:17:19;;;;;;;28.38;7.53;;;8.40;99.90;;;;;;5071956;28;20041;-92
2023/12/09 03:19:45;;;;;;;26.35;7.28;;;8.40;99.90;;;;;;5055169;28;20076;-92
2023/12/09 03:22:10;;;;;;;24.50;6.53;;;8.40;99.90;;;;;;5072020;28;20045;-92
2023/12/09 03:24:36;;;;;;;27.65;8.20;;;8.40;99.90;;;;;;5055338;28;20482;-92
2023/12/09 03:27:02;;;;;;;20.67;7.22;;;8.40;99.90;;;;;;5055265;28;20090;-91
2023/12/09 03:29:27;;;;;;;15.48;5.15;;;8.40;99.90;;;;;;5054713;28;20102;-92
2023/12/09 03:31:53;;;;;;;17.27;5.90;;;8.40;99.90;;;;;;5054878;28;20094;-92
2023/12/09 03:34:19;;;;;;;19.35;6.20;;;8.40;99.90;;;;;;5055081;28;20389;-91
2023/12/09 03:36:44;;;;;;;17.08;6.60;;;8.40;99.90;;;;;;5055254;28;20047;-92
2023/12/09 03:39:11;;;;;;;22.13;5.80;;;8.40;99.90;;;;;;5071594;28;20048;-92
2023/12/09 03:41:36;;;;;;;17.80;6.03;;;8.40;99.90;;;;;;5054785;28;20044;-92
2023/12/09 03:44:02;;;;;;;19.38;5.70;;;8.30;99.90;;;;;;5071484;28;20101;-92
2023/12/09 03:46:28;;;;;;;27.35;7.05;;;8.40;99.90;;;;;;5071345;28;20045;-91
2023/12/09 03:48:54;;;;;;;16.40;5.03;;;8.40;99.90;;;;;;5071138;28;20120;-92
2023/12/09 03:51:20;;;;;;;25.58;6.82;;;8.30;99.90;;;;;;5071267;28;20032;-92
2023/12/09 03:53:45;;;;;;;28.35;7.35;;;8.30;99.90;;;;;;5054758;28;20036;-92
2023/12/09 03:56:14;;;;;;;22.40;7.93;;;8.30;99.90;;;;;;5071515;28;20036;-92
2023/12/09 03:58:39;;;;;;;20.95;6.63;;;8.30;99.90;;;;;;5054575;28;20044;-92
2023/12/09 04:01:05;;;;;;;18.00;6.20;;;8.30;99.90;;;;;;5054590;28;20430;-92
2023/12/09 04:03:31;;;;;;;23.58;6.38;;;8.30;99.90;;;;;;5071286;28;20071;-91
2023/12/09 04:05:57;;;;;;;16.58;6.15;;;8.30;99.90;;;;;;5054674;28;20045;-92
2023/12/09 04:08:22;;;;;;;19.77;6.28;;;8.30;99.90;;;;;;5054150;28;20427;-92
2023/12/09 04:10:48;;;;;;;23.92;5.88;;;8.30;99.90;;;;;;5053870;28;20032;-91
2023/12/09 04:13:14;;;;;;;26.40;7.70;;;8.30;99.90;;;;;;5071287;28;20040;-92
2023/12/09 04:15:39;;;;;;;23.75;7.70;;;8.30;99.90;;;;;;5070371;28;20476;-91
2023/12/09 04:18:06;;;;;;;20.33;7.30;;;8.30;99.90;;;;;;5070213;28;20491;-92
2023/12/09 04:20:32;;;;;;;24.33;8.10;;;8.30;99.90;;;;;;5070008;28;20123;-92
2023/12/09 04:22:57;;;;;;;21.73;7.13;;;8.20;99.90;;;;;;5069292;28;20571;-92
2023/12/09 04:25:24;;;;;;;20.23;5.63;;;8.30;99.90;;;;;;5069662;28;20036;-91
2023/12/09 04:27:54;;;;;;;17.55;6.50;;;8.20;99.90;;;;;;5049792;28;20480;-90
2023/12/09 04:30:21;;;;;;;21.73;7.18;;;8.20;99.90;;;;;;5040005;28;20473;-90
2023/12/09 04:32:47;;;;;;;20.02;6.20;;;8.20;99.90;;;;;;5069015;28;20087;-89
2023/12/09 04:35:13;;;;;;;18.73;4.95;;;8.20;99.90;;;;;;5053861;28;20072;-90
2023/12/09 04:37:39;;;;;;;15.70;5.72;;;8.20;99.90;;;;;;5053966;28;20068;-90
2023/12/09 04:40:08;;;;;;;15.68;5.18;;;8.20;99.90;;;;;;5069998;28;20033;-90
2023/12/09 04:42:34;;;;;;;19.40;6.05;;;8.20;99.90;;;;;;5053421;28;20123;-91
2023/12/09 04:44:59;;;;;;;16.15;5.75;;;8.20;99.90;;;;;;5054271;28;20482;-90
2023/12/09 04:47:25;;;;;;;14.90;5.25;;;8.10;99.90;;;;;;5054111;28;20032;-90
2023/12/09 04:49:51;;;;;;;18.00;6.43;;;8.10;99.90;;;;;;5081996;28;20047;-87
2023/12/09 04:52:16;;;;;;;23.00;7.80;;;8.10;99.90;;;;;;5054863;28;20037;-91
2023/12/09 04:54:42;;;;;;;31.25;6.10;;;8.10;99.90;;;;;;5053556;28;20415;-91
2023/12/09 04:57:08;;;;;;;19.42;6.82;;;8.10;99.90;;;;;;5055192;28;20043;-91
2023/12/09 04:59:33;;;;;;;30.42;7.43;;;8.10;99.90;;;;;;5045506;28;20056;-91
2023/12/09 05:01:59;;;;;;;14.43;5.43;;;8.10;99.90;;;;;;5043197;28;20045;-91
2023/12/09 05:04:24;;;;;;;18.73;5.68;;;8.10;99.90;;;;;;5059401;28;20076;-91
2023/12/09 05:06:50;;;;;;;17.45;5.68;;;8.10;99.90;;;;;;5053615;28;20042;-91
2023/12/09 05:09:16;;;;;;;14.77;5.72;;;8.10;99.90;;;;;;5070035;28;20040;-90
2023/12/09 05:11:41;;;;;;;13.85;5.95;;;8.10;99.90;;;;;;5069959;28;20041;-91
2023/12/09 05:14:07;;;;;;;15.05;5.88;;;8.10;99.90;;;;;;5053003;28;20560;-91
2023/12/09 05:16:33;;;;;;;14.60;4.25;;;8.10;99.90;;;;;;5053187;28;20041;-91
2023/12/09 05:18:58;;;;;;;15.32;5.75;;;8.10;99.90;;;;;;5053179;28;20040;-90
2023/12/09 05:21:24;;;;;;;16.60;5.60;;;8.10;99.90;;;;;;5053045;28;20420;-90
2023/12/09 05:23:50;;;;;;;20.05;6.38;;;8.10;99.90;;;;;;5069512;28;20037;-90
2023/12/09 05:26:28;;;;;;;25.27;6.40;;;8.10;99.90;;;;;;5052313;28;20040;-91
2023/12/09 05:28:55;;;;;;;22.02;6.85;;;8.10;99.90;;;;;;5070210;28;20032;-91
2023/12/09 05:31:22;;;;;;;28.48;6.30;;;8.10;99.90;;;;;;5054010;28;20519;-91
2023/12/09 05:33:48;;;;;;;19.42;7.30;;;8.10;99.90;;;;;;5053668;28;20044;-90
2023/12/09 05:36:13;;;;;;;16.17;5.68;;;8.10;99.90;;;;;;5052749;28;20039;-91
2023/12/09 05:38:41;;;;;;;22.88;7.50;;;8.10;99.90;;;;;;5069596;28;20115;-90
2023/12/09 05:41:07;;;;;;;28.50;7.32;;;8.10;99.90;;;;;;5052643;28;20415;-91
2023/12/09 05:43:32;;;;;;;15.55;4.60;;;8.00;99.90;;;;;;5069560;28;20047;-91
2023/12/09 05:45:58;;;;;;;22.52;6.70;;;8.10;99.90;;;;;;5052909;28;20051;-90
2023/12/09 05:48:23;;;;;;;20.77;5.80;;;8.10;99.90;;;;;;5069731;28;20123;-90
2023/12/09 05:50:49;;;;;;;23.20;7.10;;;8.10;99.90;;;;;;5069481;28;20033;-90
2023/12/09 05:53:15;;;;;;;20.10;6.75;;;8.00;99.90;;;;;;5069632;28;20509;-90
2023/12/09 05:55:40;;;;;;;20.35;5.85;;;8.00;99.90;;;;;;5069400;28;20052;-90
2023/12/09 05:58:06;;;;;;;19.65;6.03;;;8.00;99.90;;;;;;5052864;28;20039;-90
2023/12/09 06:00:32;;;;;;;18.25;6.80;;;8.00;99.90;;;;;;5052953;28;20040;-90
2023/12/09 06:02:58;;;;;;;20.70;5.72;;;8.00;99.90;;;;;;5069230;28;20515;-91
2023/12/09 06:05:24;;;;;;;15.13;5.32;;;8.00;99.90;;;;;;5069463;28;20063;-90
2023/12/09 06:07:49;;;;;;;17.70;6.13;;;8.00;99.90;;;;;;5069381;28;20502;-90
2023/12/09 06:10:15;;;;;;;18.10;5.00;;;8.00;99.90;;;;;;5070074;28;20055;-90
2023/12/09 06:12:41;;;;;;;19.17;5.45;;;8.00;99.90;;;;;;5069158;28;20567;-90
2023/12/09 06:15:07;;;;;;;15.35;4.55;;;8.00;99.90;;;;;;5069266;28;20028;-90
2023/12/09 06:17:32;;;;;;;17.40;4.82;;;7.90;99.90;;;;;;5068833;28;20036;-90
2023/12/09 06:19:58;;;;;;;24.08;4.78;;;7.90;99.90;;;;;;5052599;28;20147;-90
2023/12/09 06:22:24;;;;;;;16.83;5.88;;;7.90;99.90;;;;;;5052287;28;20044;-91
2023/12/09 06:24:51;;;;;;;19.70;5.90;;;7.90;99.90;;;;;;5051791;28;20040;-91
2023/12/09 06:27:17;;;;;;;17.38;5.28;;;8.00;99.90;;;;;;5052420;28;20082;-91
2023/12/09 06:29:45;;;;;;;13.88;5.25;;;8.00;99.90;;;;;;5059282;28;20048;-91
2023/12/09 06:32:10;;;;;;;12.27;4.97;;;7.90;99.90;;;;;;5052323;28;20070;-91
2023/12/09 06:34:36;;;;;;;13.30;5.60;;;7.90;99.90;;;;;;5052385;28;20036;-90
2023/12/09 06:37:02;;;;;;;19.60;5.70;;;7.90;99.90;;;;;;5052622;28;20143;-91
2023/12/09 06:39:27;;;;;;;26.95;6.43;;;7.90;99.90;;;;;;5052196;28;20510;-91
2023/12/09 06:41:53;;;;;;;19.42;6.20;;;7.90;99.90;;;;;;5051962;28;20040;-91
2023/12/09 06:44:19;;;;;;;16.30;5.60;;;7.90;99.90;;;;;;5051618;28;20037;-91
2023/12/09 06:46:44;;;;;;;20.15;4.82;;;7.90;99.90;;;;;;5052466;28;20041;-91
2023/12/09 06:49:10;;;;;;;14.15;4.50;;;7.80;99.90;;;;;;5072119;28;20507;-91
2023/12/09 06:51:35;;;;;;;17.52;5.28;;;7.80;99.90;;;;;;5071874;28;20036;-92
2023/12/09 06:54:01;;;;;;;11.23;4.78;;;7.80;99.90;;;;;;5051996;28;20068;-90
2023/12/09 06:56:27;;;;;;;16.65;5.25;;;7.80;99.90;;;;;;5045357;28;20035;-90
2023/12/09 06:58:53;;;;;;;13.85;4.53;;;7.70;99.90;;;;;;5072615;28;20040;-91
2023/12/09 07:01:23;;;;;;;15.73;4.15;;;7.70;99.90;;;;;;5072370;28;20045;-91
2023/12/09 07:03:49;;;;;;;12.63;4.35;;;7.70;99.90;;;;;;5055919;28;20047;-91
2023/12/09 07:06:17;;;;;;;20.58;4.68;;;7.70;99.90;;;;;;5071925;28;20545;-91
2023/12/09 07:08:43;;;;;;;17.20;5.07;;;7.60;99.90;;;;;;5055694;28;20098;-91
2023/12/09 07:11:09;;;;;;;16.67;4.30;;;7.60;99.90;;;;;;5055325;28;20075;-91
2023/12/09 07:13:35;;;;;;;15.18;5.30;;;7.60;99.90;;;;;;5054645;28;20040;-91
2023/12/09 07:16:01;;;;;;;15.43;3.88;;;7.60;99.90;;;;;;5072241;28;20082;-91
2023/12/09 07:18:26;;;;;;;17.30;4.95;;;7.60;99.90;;;;;;5055581;28;20040;-91
2023/12/09 07:20:52;;;;;;;18.27;5.13;;;7.60;99.90;;;;;;5055107;28;20515;-90
2023/12/09 07:23:17;;;;;;;17.10;3.70;;;7.50;99.90;;;;;;5055153;28;20044;-90
2023/12/09 07:25:43;;;;;;;17.27;4.82;;;7.50;99.90;;;;;;5052749;28;20494;-91
2023/12/09 07:28:09;;;;;;;19.67;4.97;;;7.50;99.90;;;;;;5052386;28;20036;-91
2023/12/09 07:30:34;;;;;;;20.70;4.53;;;7.50;99.90;;;;;;5051850;28;20091;-91
2023/12/09 07:33:00;;;;;;;14.98;3.30;;;7.40;99.90;;;;;;5046994;28;20040;-90
2023/12/09 07:35:26;;;;;;;20.55;4.03;;;7.40;99.90;;;;;;5065375;28;20044;-90
2023/12/09 07:37:51;;;;;;;11.85;3.80;;;7.40;99.90;;;;;;5068735;28;20492;-91
2023/12/09 07:40:17;;;;;;;10.77;3.40;;;7.30;99.90;;;;;;5052112;28;20039;-90
2023/12/09 07:42:42;;;;;;;16.30;4.38;;;7.30;99.90;;;;;;5052572;28;20113;-90
2023/12/09 07:45:09;;;;;;;16.98;3.40;;;7.30;99.90;;;;;;5055278;28;20032;-90
2023/12/09 07:47:34;;;;;;;17.88;3.65;;;7.30;99.90;;;;;;5055419;28;20051;-91
2023/12/09 07:50:00;;;;;;;10.73;3.10;;;7.30;99.90;;;;;;5056208;28;20041;-90
2023/12/09 07:52:26;;;;;;;15.10;2.67;;;7.20;99.90;;;;;;5059421;28;20091;-90
2023/12/09 07:54:51;;;;;;;14.82;3.22;;;7.20;99.90;;;;;;5060190;28;20457;-91
2023/12/09 07:57:17;;;;;;;12.32;3.28;;;7.20;99.90;;;;;;5053707;28;20407;-89
2023/12/09 07:59:43;;;;;;;11.27;2.97;;;7.20;99.90;;;;;;5054326;28;20037;-92
2023/12/09 08:02:09;;;;;;;12.00;3.45;;;7.20;99.90;;;;;;5054406;28;20063;-91
2023/12/09 08:04:34;;;;;;;14.10;2.97;;;7.20;99.90;;;;;;5070870;28;20450;-91
2023/12/09 08:07:00;;;;;;;13.00;2.83;;;7.20;99.90;;;;;;5054206;28;20173;-91
2023/12/09 08:09:25;;;;;;;11.10;3.20;;;7.20;99.90;;;;;;5054230;28;20093;-92
2023/12/09 08:11:51;;;;;;;10.52;2.85;;;7.20;99.90;;;;;;5054280;28;20403;-90
2023/12/09 08:14:17;;;;;;;17.35;2.80;;;7.20;99.90;;;;;;5070796;28;20113;-91
2023/12/09 08:16:43;;;;;;;13.45;2.88;;;7.20;99.90;;;;;;5054527;28;20036;-91
2023/12/09 08:19:08;;;;;;;20.40;3.15;;;7.20;99.90;;;;;;5071298;28;20098;-90
2023/12/09 08:21:37;;;;;;;13.15;2.53;;;7.20;99.90;;;;;;5053872;28;20036;-90
2023/12/09 08:24:03;;;;;;;14.20;2.70;;;7.20;99.90;;;;;;5070723;28;20553;-90
2023/12/09 08:26:29;;;;;;;10.02;1.95;;;7.20;99.90;;;;;;5054238;28;20128;-91
2023/12/09 08:28:55;;;;;;;15.98;2.92;;;7.20;99.90;;;;;;5053970;28;20146;-91
2023/12/09 08:31:21;;;;;;;13.90;2.67;;;7.30;99.90;;;;;;5053288;28;20503;-91
2023/12/09 08:33:46;;;;;;;11.60;3.20;;;7.30;99.90;;;;;;5069605;28;20039;-91
2023/12/09 08:36:12;;;;;;;12.93;3.33;;;7.30;99.90;;;;;;5053692;28;20033;-91
2023/12/09 08:38:37;;;;;;;13.93;2.78;;;7.30;99.90;;;;;;5053608;28;20036;-91
2023/12/09 08:41:03;;;;;;;15.40;3.60;;;7.30;99.90;;;;;;5070608;28;20052;-90
2023/12/09 08:43:29;;;;;;;13.55;2.75;;;7.30;99.90;;;;;;5053816;28;20133;-90
2023/12/09 08:45:55;;;;;;;10.23;2.33;;;7.30;99.90;;;;;;5070658;28;20047;-90
2023/12/09 08:48:20;;;;;;;9.50;2.47;;;7.30;99.90;;;;;;5053196;28;20064;-90
2023/12/09 08:50:46;;;;;;;13.43;2.72;;;7.30;99.90;;;;;;5053328;28;20036;-90
2023/12/09 08:53:12;;;;;;;8.52;2.10;;;7.30;99.90;;;;;;5067856;28;20063;-91
2023/12/09 08:55:38;;;;;;;9.60;1.83;;;7.40;99.90;;;;;;5050927;28;20121;-91
2023/12/09 08:58:03;;;;;;;8.10;1.90;;;7.40;99.90;;;;;;5051054;28;20076;-91
2023/12/09 09:00:30;;;;;;;9.25;2.00;;;7.40;99.90;;;;;;5049942;28;20443;-91
2023/12/09 09:02:56;;;;;;;12.35;2.78;;;7.40;99.90;;;;;;5049919;28;20032;-90
2023/12/09 09:05:22;;;;;;;14.43;2.97;;;7.50;99.90;;;;;;5053014;28;20123;-90
2023/12/09 09:07:48;;;;;;;15.32;2.75;;;7.50;99.90;;;;;;5053863;28;20032;-90
2023/12/09 09:10:15;;;;;;;8.43;2.47;;;7.50;99.90;;;;;;5052757;28;20040;-90
2023/12/09 09:12:41;;;;;;;12.50;2.72;;;7.60;99.90;;;;;;5052899;28;20123;-90
2023/12/09 09:15:07;;;;;;;16.17;2.85;;;7.60;99.90;;;;;;5053023;28;20128;-90
2023/12/09 09:17:34;;;;;;;7.45;1.90;;;7.60;99.90;;;;;;5053074;28;20048;-91
2023/12/09 09:20:00;;;;;;;10.68;2.78;;;7.70;99.90;;;;;;5052712;28;20044;-90
2023/12/09 09:22:26;;;;;;;7.10;1.83;;;7.70;99.90;;;;;;5053049;28;20048;-90
2023/12/09 09:24:52;;;;;;;8.13;1.95;;;7.80;99.90;;;;;;5052629;28;20128;-90
2023/12/09 09:27:17;;;;;;;12.93;2.75;;;7.80;99.90;;;;;;5070001;28;20102;-90
2023/12/09 09:29:45;;;;;;;7.72;2.30;;;7.80;99.90;;;;;;5052296;28;20135;-90
2023/12/09 09:32:10;;;;;;;9.32;2.67;;;7.90;99.90;;;;;;5052193;28;20475;-90
2023/12/09 09:34:36;;;;;;;9.90;2.38;;;7.90;99.90;;;;;;5069692;28;20064;-91
2023/12/09 09:37:02;;;;;;;11.52;1.95;;;7.90;99.90;;;;;;5053407;28;20487;-91
2023/12/09 09:39:27;;;;;;;10.93;2.30;;;8.00;99.90;;;;;;5069985;28;20132;-91
2023/12/09 09:42:02;;;;;;;16.83;2.72;;;8.10;99.90;;;;;;5053035;28;20117;-90
2023/12/09 09:44:32;;;;;;;7.65;2.38;;;8.10;99.90;;;;;;5069483;28;20099;-90
2023/12/09 09:46:59;;;;;;;12.20;2.72;;;8.10;99.90;;;;;;5052395;28;20048;-90
2023/12/09 09:49:29;;;;;;;10.75;3.20;;;8.20;99.90;;;;;;5052688;28;20083;-90
2023/12/09 09:51:57;;;;;;;12.18;2.70;;;8.20;99.90;;;;;;5044974;28;20483;-90
2023/12/09 09:54:27;;;;;;;12.48;1.92;;;8.30;99.90;;;;;;5069279;28;20036;-90
2023/12/09 09:56:53;;;;;;;9.32;2.20;;;8.30;99.90;;;;;;5052916;28;20039;-90
2023/12/09 09:59:20;;;;;;;9.88;1.88;;;8.30;99.90;;;;;;5068300;28;20048;-91
2023/12/09 10:01:46;;;;;;;11.55;1.85;;;8.30;99.90;;;;;;5051945;28;20123;-91
2023/12/09 10:04:12;;;;;;;6.68;1.83;;;8.40;99.90;;;;;;5051917;28;20051;-91
2023/12/09 10:06:40;;;;;;;9.98;2.97;;;8.40;99.90;;;;;;5052170;28;20044;-90
2023/12/09 10:09:05;;;;;;;13.88;2.80;;;8.40;99.90;;;;;;5052194;28;20044;-91
2023/12/09 10:11:31;;;;;;;7.38;2.38;;;8.40;99.90;;;;;;5053643;28;20457;-91
2023/12/09 10:13:57;;;;;;;12.30;2.45;;;8.50;99.90;;;;;;5071831;28;20037;-89
2023/12/09 10:16:23;;;;;;;8.35;2.28;;;8.50;99.90;;;;;;5076208;28;20040;-90
2023/12/09 10:18:48;;;;;;;14.32;2.58;;;8.50;99.90;;;;;;5069346;28;20071;-91
2023/12/09 10:21:15;;;;;;;11.45;2.22;;;8.50;99.90;;;;;;5052669;28;20080;-91
2023/12/09 10:23:43;;;;;;;11.30;2.03;;;8.60;99.90;;;;;;5056394;28;20040;-90
2023/12/09 10:26:09;;;;;;;17.23;3.08;;;8.60;99.90;;;;;;5056653;28;20036;-91
2023/12/09 10:28:35;;;;;;;9.45;2.22;;;8.60;99.90;;;;;;5055298;28;20043;-90
2023/12/09 10:31:02;;;;;;;11.15;1.92;;;8.60;99.90;;;;;;5055669;28;20036;-90
2023/12/09 10:33:32;;;;;;;15.10;2.75;;;8.60;99.90;;;;;;5071764;28;20040;-91
2023/12/09 10:35:59;;;;;;;10.85;2.20;;;8.60;99.90;;;;;;5055902;28;20090;-90
2023/12/09 10:38:25;;;;;;;8.57;1.63;;;8.60;99.90;;;;;;5072593;28;20132;-91
2023/12/09 10:40:51;;;;;;;6.53;1.40;;;8.60;99.90;;;;;;5055329;28;20119;-90
2023/12/09 10:43:17;;;;;;;8.60;1.85;;;8.60;99.90;;;;;;5055642;28;20393;-91
2023/12/09 10:45:43;;;;;;;8.20;1.95;;;8.60;99.90;;;;;;5072834;28;20040;-90
2023/12/09 10:48:08;;;;;;;10.02;2.45;;;8.60;99.90;;;;;;5072990;28;20036;-90
2023/12/09 10:50:37;;;;;;;10.43;1.92;;;8.60;99.90;;;;;;5072741;28;20123;-90
2023/12/09 10:53:04;;;;;;;5.18;1.40;;;8.60;99.90;;;;;;5072285;28;20154;-90
2023/12/09 10:55:30;;;;;;;5.88;2.03;;;8.60;99.90;;;;;;5053015;28;20131;-90
2023/12/09 10:57:57;;;;;;;9.32;2.28;;;8.60;99.90;;;;;;5069409;28;20079;-90
2023/12/09 11:00:24;;;;;;;8.68;1.73;;;8.60;99.90;;;;;;5069333;28;20048;-90
2023/12/09 11:02:52;;;;;;;8.45;1.63;;;8.60;99.90;;;;;;5052651;28;20072;-89
2023/12/09 11:05:19;;;;;;;8.85;1.85;;;8.60;99.90;;;;;;5053803;28;20048;-89
2023/12/09 11:07:47;;;;;;;10.52;2.05;;;8.60;99.90;;;;;;5055814;28;20047;-90
2023/12/09 11:10:13;;;;;;;12.15;2.22;;;8.60;99.90;;;;;;5068909;28;20067;-90
2023/12/09 11:12:40;;;;;;;7.93;1.80;;;8.60;99.90;;;;;;5044367;28;20089;-90
2023/12/09 11:15:12;;;;;;;6.45;1.60;;;8.70;99.90;;;;;;5042593;28;20507;-90
2023/12/09 11:17:40;;;;;;;10.70;2.13;;;8.70;99.90;;;;;;5048036;28;20032;-87
2023/12/09 11:20:10;;;;;;;12.20;1.98;;;8.70;99.90;;;;;;5051549;28;20150;-90
2023/12/09 11:22:38;;;;;;;6.60;1.92;;;8.70;99.90;;;;;;5057030;28;20094;-90
2023/12/09 11:25:04;;;;;;;7.88;1.98;;;8.70;99.90;;;;;;5042880;28;20044;-90
2023/12/09 11:27:33;;;;;;;11.32;2.75;;;8.70;99.90;;;;;;5044935;28;20032;-89
2023/12/09 11:29:59;;;;;;;9.80;2.05;;;8.70;99.90;;;;;;5068452;28;20037;-90
2023/12/09 11:32:25;;;;;;;8.38;1.80;;;8.80;99.90;;;;;;5057632;28;20040;-90
2023/12/09 11:34:51;;;;;;;13.10;2.22;;;8.80;99.90;;;;;;5043464;28;20041;-91
2023/12/09 11:37:18;;;;;;;7.78;1.30;;;8.80;99.90;;;;;;5050343;28;20119;-90
2023/12/09 11:39:44;;;;;;;7.90;2.05;;;8.70;99.90;;;;;;5055290;28;20090;-90
2023/12/09 11:42:11;;;;;;;10.43;2.17;;;8.80;99.90;;;;;;5072115;28;20044;-91
2023/12/09 11:44:37;;;;;;;6.40;1.30;;;8.80;99.90;;;;;;5071472;28;20503;-90
2023/12/09 11:47:04;;;;;;;11.20;2.08;;;8.80;99.90;;;;;;5054836;28;20047;-90
2023/12/09 11:49:30;;;;;;;10.43;1.98;;;8.80;99.90;;;;;;5054875;28;20044;-90
2023/12/09 11:51:56;;;;;;;8.07;1.50;;;8.80;99.90;;;;;;5055115;28;20032;-89
2023/12/09 11:54:22;;;;;;;10.15;1.67;;;8.80;99.90;;;;;;5071225;28;20500;-90
2023/12/09 11:56:48;;;;;;;9.38;1.70;;;8.80;99.90;;;;;;5071490;28;20040;-90
2023/12/09 11:59:14;;;;;;;10.55;2.13;;;8.80;99.90;;;;;;5055164;28;20051;-90
2023/12/09 12:01:40;;;;;;;8.07;1.70;;;8.80;99.90;;;;;;5054508;28;20254;-90
2023/12/09 12:04:06;;;;;;;6.38;1.73;;;8.80;99.90;;;;;;5054522;28;20040;-91
2023/12/09 12:06:32;;;;;;;11.60;1.88;;;8.90;99.90;;;;;;5071215;28;20071;-90
2023/12/09 12:08:58;;;;;;;7.18;1.83;;;8.80;99.90;;;;;;5054711;28;20043;-91
2023/12/09 12:11:24;;;;;;;7.93;2.03;;;8.80;99.90;;;;;;5054890;28;20127;-90
2023/12/09 12:13:51;;;;;;;5.22;1.77;;;8.80;99.90;;;;;;5053985;28;20680;-91
2023/12/09 12:16:17;;;;;;;6.20;1.75;;;8.90;99.90;;;;;;5051144;28;20037;-90
2023/12/09 12:18:44;;;;;;;7.93;2.03;;;8.90;99.90;;;;;;5058959;28;20090;-90
2023/12/09 12:21:10;;;;;;;5.78;1.73;;;8.90;99.90;;;;;;5039709;28;20106;-90
2023/12/09 12:23:36;;;;;;;11.75;2.00;;;8.90;99.90;;;;;;5058244;28;20516;-90
2023/12/09 12:26:02;;;;;;;7.60;1.65;;;8.90;99.90;;;;;;5057791;28;20447;-90
2023/12/09 12:28:28;;;;;;;9.98;1.45;;;8.90;99.90;;;;;;5042223;28;20116;-91
2023/12/09 12:31:01;;;;;;;6.97;1.42;;;8.90;99.90;;;;;;5047312;28;20036;-90
2023/12/09 12:33:31;;;;;;;7.60;1.73;;;8.90;99.90;;;;;;5056369;28;20493;-90
2023/12/09 12:35:58;;;;;;;9.93;1.77;;;8.90;99.90;;;;;;5060341;28;20098;-90
2023/12/09 12:38:28;;;;;;;8.35;1.80;;;9.00;99.90;;;;;;5044202;28;20029;-90
2023/12/09 12:40:55;;;;;;;7.95;1.65;;;8.90;99.90;;;;;;5048530;28;20689;-91
2023/12/09 12:43:21;;;;;;;7.90;1.73;;;9.00;99.90;;;;;;5059268;28;20044;-90